| Date | Time | Temp. (oF) | Dew Point (oF) | Rel. Hum. (%) | Press. (in.) | Wind Dir. | Wind Speed (mph) | Hourly Rainfall (in.) |
|
|---|---|---|---|---|---|---|---|---|---|
| 1 | 06/05 | 00:00 | 67 | 60 | 80 | 30.07 | S | 4 | 0.00 |
| 2 | 06/04 | 23:00 | 67 | 60 | 79 | 30.09 | SSE | 2 | 0.00 |
| 3 | 06/04 | 22:00 | 68 | 60 | 76 | 30.09 | NE | 6 | 0.00 |
| 4 | 06/04 | 21:00 | 69 | 60 | 74 | 30.07 | SE | 5 | 0.00 |
| 5 | 06/04 | 20:00 | 71 | 61 | 71 | 30.07 | SSE | 2 | 0.00 |
| 6 | 06/04 | 19:00 | 74 | 61 | 66 | 30.05 | SE | 3 | 0.00 |
| 7 | 06/04 | 18:00 | 77 | 63 | 64 | 30.05 | ESE | 8 | 0.00 |
| 8 | 06/04 | 17:00 | 79 | 60 | 53 | 30.04 | SSE | 12 | 0.00 |
| 9 | 06/04 | 16:00 | 79 | 61 | 56 | 30.05 | SSW | 6 | 0.00 |
| 10 | 06/04 | 15:00 | 78 | 61 | 57 | 30.07 | SSW | 7 | 0.00 |
| 11 | 06/04 | 14:00 | 75 | 59 | 58 | 30.09 | SSW | 15 | 0.00 |
| 12 | 06/04 | 13:00 | 76 | 61 | 61 | 30.09 | S | 12 | 0.00 |
| 13 | 06/04 | 12:00 | 74 | 63 | 71 | 30.10 | NE | 4 | 0.00 |
| 14 | 06/04 | 11:00 | 71 | 61 | 73 | 30.12 | SE | 9 | 0.00 |
| 15 | 06/04 | 10:00 | 71 | 63 | 77 | 30.12 | S | 6 | 0.00 |
| 16 | 06/04 | 09:00 | 68 | 58 | 72 | 30.14 | SSE | 2 | 0.00 |
| 17 | 06/04 | 08:00 | 63 | 55 | 77 | 30.14 | NE | 4 | 0.00 |
| 18 | 06/04 | 07:00 | 60 | 54 | 83 | 30.12 | ENE | 2 | 0.00 |
| 19 | 06/04 | 06:00 | 59 | 53 | 83 | 30.11 | E | 0 | 0.00 |
| 20 | 06/04 | 05:00 | 61 | 54 | 78 | 30.10 | ENE | 1 | 0.00 |
| 21 | 06/04 | 04:00 | 62 | 52 | 71 | 30.09 | NE | 0 | 0.00 |
| 22 | 06/04 | 03:00 | 63 | 52 | 69 | 30.08 | NE | 1 | 0.00 |
| 23 | 06/04 | 02:00 | 64 | 52 | 67 | 30.09 | SSE | 1 | 0.00 |
| 24 | 06/04 | 01:00 | 64 | 53 | 69 | 30.10 | S | 2 | 0.00 |